Sakai, Japan
Current Conditions -  °F | °C
As of 2:00 PM on Sunday 21 Dec 2014 (Local Time) from RJBE Reporting Station
Broken Clouds Broken Clouds  
Wind Chill: 41°   Ceiling: Unl
Heat Index: 48°   Visibility: 6mi
Dew Point: 30°   Wind: 22mph
Humidity: 50%   Direction: 270°W
Pressure: 29.97"   Gusts: NA
Location:  34.57°N, 135.48°E
Report Text: RJBE 210500Z 27019KT 9999 FEW030 BKN/// 09/M01 Q1015
Loading
Personal Weather Stations






























Interactive Weather Map New forecast layout! Learn more

10-Day Weather Forecast

Advertisements
Track Severe Weather on mobile